sensor_id;sensor_type;location;lat;lon;timestamp;P1;durP1;ratioP1;P2;durP2;ratioP2
15496;SDS011;7850;52.204;5.942;2022-09-27T00:02:35;0.27;;;0.27;;
15496;SDS011;7850;52.204;5.942;2022-09-27T00:02:35;0.28;;;0.28;;
15496;SDS011;7850;52.204;5.942;2022-09-27T00:02:35;0.30;;;0.30;;
15496;SDS011;7850;52.204;5.942;2022-09-27T00:03:26;0.30;;;0.30;;
15496;SDS011;7850;52.204;5.942;2022-09-27T00:04:26;0.30;;;0.30;;
15496;SDS011;7850;52.204;5.942;2022-09-27T00:05:26;0.35;;;0.35;;
15496;SDS011;7850;52.204;5.942;2022-09-27T00:06:27;0.30;;;0.30;;
15496;SDS011;7850;52.204;5.942;2022-09-27T00:07:26;0.30;;;0.30;;
15496;SDS011;7850;52.204;5.942;2022-09-27T00:08:26;0.30;;;0.30;;
15496;SDS011;7850;52.204;5.942;2022-09-27T00:09:26;0.30;;;0.30;;
15496;SDS011;7850;52.204;5.942;2022-09-27T00:10:26;0.30;;;0.30;;
15496;SDS011;7850;52.204;5.942;2022-09-27T00:11:27;0.30;;;0.30;;
15496;SDS011;7850;52.204;5.942;2022-09-27T00:12:26;0.30;;;0.30;;
15496;SDS011;7850;52.204;5.942;2022-09-27T00:13:26;0.30;;;0.30;;
15496;SDS011;7850;52.204;5.942;2022-09-27T00:14:26;0.30;;;0.30;;
15496;SDS011;7850;52.204;5.942;2022-09-27T00:15:26;0.30;;;0.30;;
15496;SDS011;7850;52.204;5.942;2022-09-27T00:16:28;0.30;;;0.30;;
15496;SDS011;7850;52.204;5.942;2022-09-27T00:17:27;0.30;;;0.30;;
15496;SDS011;7850;52.204;5.942;2022-09-27T00:18:27;0.30;;;0.30;;
15496;SDS011;7850;52.204;5.942;2022-09-27T00:19:27;0.30;;;0.30;;
15496;SDS011;7850;52.204;5.942;2022-09-27T00:20:27;0.37;;;0.37;;
15496;SDS011;7850;52.204;5.942;2022-09-27T00:21:27;0.30;;;0.30;;
15496;SDS011;7850;52.204;5.942;2022-09-27T00:22:27;0.35;;;0.35;;
15496;SDS011;7850;52.204;5.942;2022-09-27T00:23:27;0.40;;;0.40;;
15496;SDS011;7850;52.204;5.942;2022-09-27T00:24:27;0.31;;;0.31;;
15496;SDS011;7850;52.204;5.942;2022-09-27T00:25:27;0.30;;;0.30;;
15496;SDS011;7850;52.204;5.942;2022-09-27T00:26:27;0.30;;;0.30;;
15496;SDS011;7850;52.204;5.942;2022-09-27T00:27:27;0.30;;;0.30;;
15496;SDS011;7850;52.204;5.942;2022-09-27T00:28:27;0.39;;;0.39;;
15496;SDS011;7850;52.204;5.942;2022-09-27T00:29:27;0.30;;;0.30;;
15496;SDS011;7850;52.204;5.942;2022-09-27T00:30:27;0.25;;;0.25;;
15496;SDS011;7850;52.204;5.942;2022-09-27T00:31:28;0.30;;;0.30;;
15496;SDS011;7850;52.204;5.942;2022-09-27T00:32:28;0.33;;;0.33;;
15496;SDS011;7850;52.204;5.942;2022-09-27T00:33:28;0.40;;;0.40;;
15496;SDS011;7850;52.204;5.942;2022-09-27T00:34:28;0.29;;;0.29;;
15496;SDS011;7850;52.204;5.942;2022-09-27T00:35:28;0.30;;;0.30;;
15496;SDS011;7850;52.204;5.942;2022-09-27T00:36:28;0.30;;;0.30;;
15496;SDS011;7850;52.204;5.942;2022-09-27T00:37:28;0.30;;;0.30;;
15496;SDS011;7850;52.204;5.942;2022-09-27T00:38:28;0.27;;;0.27;;
15496;SDS011;7850;52.204;5.942;2022-09-27T00:39:28;0.20;;;0.20;;
15496;SDS011;7850;52.204;5.942;2022-09-27T00:40:28;0.30;;;0.30;;
15496;SDS011;7850;52.204;5.942;2022-09-27T00:41:29;0.30;;;0.30;;
15496;SDS011;7850;52.204;5.942;2022-09-27T00:42:28;0.31;;;0.31;;
15496;SDS011;7850;52.204;5.942;2022-09-27T00:43:40;0.30;;;0.30;;
15496;SDS011;7850;52.204;5.942;2022-09-27T00:45:28;0.30;;;0.30;;
15496;SDS011;7850;52.204;5.942;2022-09-27T00:46:30;0.30;;;0.30;;
15496;SDS011;7850;52.204;5.942;2022-09-27T00:47:29;0.32;;;0.32;;
15496;SDS011;7850;52.204;5.942;2022-09-27T00:48:30;0.34;;;0.34;;
15496;SDS011;7850;52.204;5.942;2022-09-27T00:49:29;0.30;;;0.30;;
15496;SDS011;7850;52.204;5.942;2022-09-27T00:50:30;0.37;;;0.37;;
15496;SDS011;7850;52.204;5.942;2022-09-27T00:51:29;0.40;;;0.40;;
15496;SDS011;7850;52.204;5.942;2022-09-27T00:52:30;0.36;;;0.36;;
15496;SDS011;7850;52.204;5.942;2022-09-27T00:53:30;0.30;;;0.30;;
15496;SDS011;7850;52.204;5.942;2022-09-27T00:54:29;0.32;;;0.32;;
15496;SDS011;7850;52.204;5.942;2022-09-27T00:55:30;0.30;;;0.30;;
15496;SDS011;7850;52.204;5.942;2022-09-27T00:56:29;0.30;;;0.30;;
15496;SDS011;7850;52.204;5.942;2022-09-27T00:57:29;0.27;;;0.27;;
15496;SDS011;7850;52.204;5.942;2022-09-27T00:58:30;0.30;;;0.30;;
15496;SDS011;7850;52.204;5.942;2022-09-27T00:59:31;0.30;;;0.30;;
15496;SDS011;7850;52.204;5.942;2022-09-27T01:00:29;0.31;;;0.31;;
15496;SDS011;7850;52.204;5.942;2022-09-27T01:01:29;0.30;;;0.30;;
15496;SDS011;7850;52.204;5.942;2022-09-27T01:02:29;0.30;;;0.30;;
15496;SDS011;7850;52.204;5.942;2022-09-27T01:03:32;0.40;;;0.40;;
15496;SDS011;7850;52.204;5.942;2022-09-27T01:04:30;0.30;;;0.30;;
15496;SDS011;7850;52.204;5.942;2022-09-27T01:05:30;0.30;;;0.30;;
15496;SDS011;7850;52.204;5.942;2022-09-27T01:06:30;0.36;;;0.36;;
15496;SDS011;7850;52.204;5.942;2022-09-27T01:07:30;0.38;;;0.38;;
15496;SDS011;7850;52.204;5.942;2022-09-27T01:08:30;0.34;;;0.34;;
15496;SDS011;7850;52.204;5.942;2022-09-27T01:09:30;0.40;;;0.40;;
15496;SDS011;7850;52.204;5.942;2022-09-27T01:10:31;0.25;;;0.25;;
15496;SDS011;7850;52.204;5.942;2022-09-27T01:11:34;0.21;;;0.21;;
15496;SDS011;7850;52.204;5.942;2022-09-27T01:12:32;0.28;;;0.28;;
15496;SDS011;7850;52.204;5.942;2022-09-27T01:13:33;0.30;;;0.30;;
15496;SDS011;7850;52.204;5.942;2022-09-27T01:14:35;0.30;;;0.30;;
15496;SDS011;7850;52.204;5.942;2022-09-27T01:15:32;0.33;;;0.33;;
15496;SDS011;7850;52.204;5.942;2022-09-27T01:16:32;0.30;;;0.30;;
15496;SDS011;7850;52.204;5.942;2022-09-27T01:17:34;0.30;;;0.30;;
15496;SDS011;7850;52.204;5.942;2022-09-27T01:18:31;0.35;;;0.35;;
15496;SDS011;7850;52.204;5.942;2022-09-27T01:19:37;0.35;;;0.35;;
15496;SDS011;7850;52.204;5.942;2022-09-27T01:20:37;0.33;;;0.33;;
15496;SDS011;7850;52.204;5.942;2022-09-27T01:21:36;0.39;;;0.39;;
15496;SDS011;7850;52.204;5.942;2022-09-27T01:22:31;0.36;;;0.36;;
15496;SDS011;7850;52.204;5.942;2022-09-27T01:23:36;0.35;;;0.35;;
15496;SDS011;7850;52.204;5.942;2022-09-27T01:24:37;0.30;;;0.30;;
15496;SDS011;7850;52.204;5.942;2022-09-27T01:25:37;0.30;;;0.30;;
15496;SDS011;7850;52.204;5.942;2022-09-27T01:26:39;0.30;;;0.30;;
15496;SDS011;7850;52.204;5.942;2022-09-27T01:28:34;0.30;;;0.30;;
15496;SDS011;7850;52.204;5.942;2022-09-27T01:29:32;0.30;;;0.30;;
15496;SDS011;7850;52.204;5.942;2022-09-27T01:30:34;0.40;;;0.40;;
15496;SDS011;7850;52.204;5.942;2022-09-27T01:31:32;0.40;;;0.40;;
15496;SDS011;7850;52.204;5.942;2022-09-27T01:32:33;0.44;;;0.44;;
15496;SDS011;7850;52.204;5.942;2022-09-27T01:33:36;0.32;;;0.32;;
15496;SDS011;7850;52.204;5.942;2022-09-27T01:34:33;0.37;;;0.37;;
15496;SDS011;7850;52.204;5.942;2022-09-27T01:35:33;0.30;;;0.30;;
15496;SDS011;7850;52.204;5.942;2022-09-27T01:36:35;0.39;;;0.39;;
15496;SDS011;7850;52.204;5.942;2022-09-27T01:37:35;0.34;;;0.34;;
15496;SDS011;7850;52.204;5.942;2022-09-27T01:38:33;0.37;;;0.37;;
15496;SDS011;7850;52.204;5.942;2022-09-27T01:39:33;0.31;;;0.31;;
15496;SDS011;7850;52.204;5.942;2022-09-27T01:40:32;0.37;;;0.37;;
15496;SDS011;7850;52.204;5.942;2022-09-27T01:41:33;0.40;;;0.40;;
15496;SDS011;7850;52.204;5.942;2022-09-27T01:42:34;0.40;;;0.40;;
15496;SDS011;7850;52.204;5.942;2022-09-27T01:43:33;0.40;;;0.40;;
15496;SDS011;7850;52.204;5.942;2022-09-27T01:44:33;0.30;;;0.30;;
15496;SDS011;7850;52.204;5.942;2022-09-27T01:45:33;0.40;;;0.40;;
15496;SDS011;7850;52.204;5.942;2022-09-27T01:46:33;0.28;;;0.28;;
15496;SDS011;7850;52.204;5.942;2022-09-27T01:47:34;0.30;;;0.30;;
15496;SDS011;7850;52.204;5.942;2022-09-27T01:48:34;0.39;;;0.39;;
15496;SDS011;7850;52.204;5.942;2022-09-27T01:49:33;0.26;;;0.26;;
15496;SDS011;7850;52.204;5.942;2022-09-27T01:50:34;0.30;;;0.30;;
15496;SDS011;7850;52.204;5.942;2022-09-27T01:51:34;0.30;;;0.30;;
15496;SDS011;7850;52.204;5.942;2022-09-27T01:52:34;0.30;;;0.30;;
15496;SDS011;7850;52.204;5.942;2022-09-27T01:53:34;0.54;;;0.54;;
15496;SDS011;7850;52.204;5.942;2022-09-27T01:54:34;0.64;;;0.64;;
15496;SDS011;7850;52.204;5.942;2022-09-27T01:55:34;0.51;;;0.51;;
15496;SDS011;7850;52.204;5.942;2022-09-27T01:56:34;0.34;;;0.34;;
15496;SDS011;7850;52.204;5.942;2022-09-27T01:57:34;0.40;;;0.40;;
15496;SDS011;7850;52.204;5.942;2022-09-27T01:58:35;0.50;;;0.50;;
15496;SDS011;7850;52.204;5.942;2022-09-27T01:59:34;0.50;;;0.50;;
15496;SDS011;7850;52.204;5.942;2022-09-27T02:00:33;0.50;;;0.50;;
15496;SDS011;7850;52.204;5.942;2022-09-27T02:01:33;0.60;;;0.60;;
15496;SDS011;7850;52.204;5.942;2022-09-27T02:02:35;0.62;;;0.62;;
15496;SDS011;7850;52.204;5.942;2022-09-27T02:03:34;0.48;;;0.48;;
15496;SDS011;7850;52.204;5.942;2022-09-27T02:04:34;0.50;;;0.50;;
15496;SDS011;7850;52.204;5.942;2022-09-27T02:05:36;0.59;;;0.59;;
15496;SDS011;7850;52.204;5.942;2022-09-27T02:06:34;0.60;;;0.60;;
15496;SDS011;7850;52.204;5.942;2022-09-27T02:07:35;0.56;;;0.56;;
15496;SDS011;7850;52.204;5.942;2022-09-27T02:08:35;0.50;;;0.50;;
15496;SDS011;7850;52.204;5.942;2022-09-27T02:09:35;0.43;;;0.43;;
15496;SDS011;7850;52.204;5.942;2022-09-27T02:10:34;0.40;;;0.40;;
15496;SDS011;7850;52.204;5.942;2022-09-27T02:11:34;0.50;;;0.50;;
15496;SDS011;7850;52.204;5.942;2022-09-27T02:12:34;0.49;;;0.49;;
15496;SDS011;7850;52.204;5.942;2022-09-27T02:13:36;0.48;;;0.48;;
15496;SDS011;7850;52.204;5.942;2022-09-27T02:14:35;0.54;;;0.54;;
15496;SDS011;7850;52.204;5.942;2022-09-27T02:15:36;0.63;;;0.63;;
15496;SDS011;7850;52.204;5.942;2022-09-27T02:16:35;0.59;;;0.59;;
15496;SDS011;7850;52.204;5.942;2022-09-27T02:17:36;0.48;;;0.48;;
15496;SDS011;7850;52.204;5.942;2022-09-27T02:18:35;0.48;;;0.48;;
15496;SDS011;7850;52.204;5.942;2022-09-27T02:19:37;0.50;;;0.50;;
15496;SDS011;7850;52.204;5.942;2022-09-27T02:20:36;0.40;;;0.40;;
15496;SDS011;7850;52.204;5.942;2022-09-27T02:21:39;0.54;;;0.54;;
15496;SDS011;7850;52.204;5.942;2022-09-27T02:22:35;0.57;;;0.57;;
15496;SDS011;7850;52.204;5.942;2022-09-27T02:23:35;0.40;;;0.40;;
15496;SDS011;7850;52.204;5.942;2022-09-27T02:24:36;0.60;;;0.60;;
15496;SDS011;7850;52.204;5.942;2022-09-27T02:25:37;0.47;;;0.47;;
15496;SDS011;7850;52.204;5.942;2022-09-27T02:26:36;0.50;;;0.50;;
15496;SDS011;7850;52.204;5.942;2022-09-27T02:27:35;0.51;;;0.51;;
15496;SDS011;7850;52.204;5.942;2022-09-27T02:28:36;0.50;;;0.50;;
15496;SDS011;7850;52.204;5.942;2022-09-27T02:29:36;0.42;;;0.42;;
15496;SDS011;7850;52.204;5.942;2022-09-27T02:30:35;0.30;;;0.30;;
15496;SDS011;7850;52.204;5.942;2022-09-27T02:31:35;0.30;;;0.30;;
15496;SDS011;7850;52.204;5.942;2022-09-27T02:32:35;0.30;;;0.30;;
15496;SDS011;7850;52.204;5.942;2022-09-27T02:33:36;0.35;;;0.35;;
15496;SDS011;7850;52.204;5.942;2022-09-27T02:34:35;0.30;;;0.30;;
15496;SDS011;7850;52.204;5.942;2022-09-27T02:35:35;0.30;;;0.30;;
15496;SDS011;7850;52.204;5.942;2022-09-27T02:36:35;0.30;;;0.30;;
15496;SDS011;7850;52.204;5.942;2022-09-27T02:37:35;0.31;;;0.31;;
15496;SDS011;7850;52.204;5.942;2022-09-27T02:38:35;0.31;;;0.31;;
15496;SDS011;7850;52.204;5.942;2022-09-27T02:39:35;0.28;;;0.28;;
15496;SDS011;7850;52.204;5.942;2022-09-27T02:40:41;0.30;;;0.30;;
15496;SDS011;7850;52.204;5.942;2022-09-27T02:41:35;0.30;;;0.30;;
15496;SDS011;7850;52.204;5.942;2022-09-27T02:42:35;0.30;;;0.30;;
15496;SDS011;7850;52.204;5.942;2022-09-27T02:43:35;0.30;;;0.30;;
15496;SDS011;7850;52.204;5.942;2022-09-27T02:44:35;0.30;;;0.30;;
15496;SDS011;7850;52.204;5.942;2022-09-27T02:45:37;0.33;;;0.33;;
15496;SDS011;7850;52.204;5.942;2022-09-27T02:46:40;0.30;;;0.30;;
15496;SDS011;7850;52.204;5.942;2022-09-27T02:47:40;0.40;;;0.40;;
15496;SDS011;7850;52.204;5.942;2022-09-27T02:48:37;0.35;;;0.35;;
15496;SDS011;7850;52.204;5.942;2022-09-27T02:49:42;0.37;;;0.37;;
15496;SDS011;7850;52.204;5.942;2022-09-27T02:50:40;0.30;;;0.30;;
15496;SDS011;7850;52.204;5.942;2022-09-27T02:51:40;0.40;;;0.40;;
15496;SDS011;7850;52.204;5.942;2022-09-27T02:52:38;0.37;;;0.37;;
15496;SDS011;7850;52.204;5.942;2022-09-27T02:53:39;0.30;;;0.30;;
15496;SDS011;7850;52.204;5.942;2022-09-27T02:54:38;0.30;;;0.30;;
15496;SDS011;7850;52.204;5.942;2022-09-27T02:55:39;0.37;;;0.37;;
15496;SDS011;7850;52.204;5.942;2022-09-27T02:56:39;0.30;;;0.30;;
15496;SDS011;7850;52.204;5.942;2022-09-27T02:57:39;0.30;;;0.30;;
15496;SDS011;7850;52.204;5.942;2022-09-27T02:58:40;0.30;;;0.30;;
15496;SDS011;7850;52.204;5.942;2022-09-27T02:59:38;0.30;;;0.30;;
15496;SDS011;7850;52.204;5.942;2022-09-27T03:00:38;0.30;;;0.30;;
15496;SDS011;7850;52.204;5.942;2022-09-27T03:01:37;0.30;;;0.30;;
15496;SDS011;7850;52.204;5.942;2022-09-27T03:02:40;0.30;;;0.30;;
15496;SDS011;7850;52.204;5.942;2022-09-27T03:03:38;0.30;;;0.30;;
15496;SDS011;7850;52.204;5.942;2022-09-27T03:04:38;0.40;;;0.40;;
15496;SDS011;7850;52.204;5.942;2022-09-27T03:05:38;0.35;;;0.35;;
15496;SDS011;7850;52.204;5.942;2022-09-27T03:06:37;0.40;;;0.40;;
15496;SDS011;7850;52.204;5.942;2022-09-27T03:07:37;0.40;;;0.40;;
15496;SDS011;7850;52.204;5.942;2022-09-27T03:08:37;0.20;;;0.20;;
15496;SDS011;7850;52.204;5.942;2022-09-27T03:09:40;0.30;;;0.30;;
15496;SDS011;7850;52.204;5.942;2022-09-27T03:10:37;0.33;;;0.33;;
15496;SDS011;7850;52.204;5.942;2022-09-27T03:11:37;0.30;;;0.30;;
15496;SDS011;7850;52.204;5.942;2022-09-27T03:12:37;0.25;;;0.25;;
15496;SDS011;7850;52.204;5.942;2022-09-27T03:13:37;0.20;;;0.20;;
15496;SDS011;7850;52.204;5.942;2022-09-27T03:14:37;0.20;;;0.20;;
15496;SDS011;7850;52.204;5.942;2022-09-27T03:15:37;0.20;;;0.20;;
15496;SDS011;7850;52.204;5.942;2022-09-27T03:16:37;0.20;;;0.20;;
15496;SDS011;7850;52.204;5.942;2022-09-27T03:17:38;0.30;;;0.30;;
15496;SDS011;7850;52.204;5.942;2022-09-27T03:18:38;0.20;;;0.20;;
15496;SDS011;7850;52.204;5.942;2022-09-27T03:19:38;0.27;;;0.27;;
15496;SDS011;7850;52.204;5.942;2022-09-27T03:20:38;0.20;;;0.20;;
15496;SDS011;7850;52.204;5.942;2022-09-27T03:21:38;0.20;;;0.20;;
15496;SDS011;7850;52.204;5.942;2022-09-27T03:22:38;0.24;;;0.24;;
15496;SDS011;7850;52.204;5.942;2022-09-27T03:23:38;0.25;;;0.25;;
15496;SDS011;7850;52.204;5.942;2022-09-27T03:24:38;0.21;;;0.21;;
15496;SDS011;7850;52.204;5.942;2022-09-27T03:25:39;0.30;;;0.30;;
15496;SDS011;7850;52.204;5.942;2022-09-27T03:26:38;0.27;;;0.27;;
15496;SDS011;7850;52.204;5.942;2022-09-27T03:27:38;0.30;;;0.30;;
15496;SDS011;7850;52.204;5.942;2022-09-27T03:28:38;0.22;;;0.22;;
15496;SDS011;7850;52.204;5.942;2022-09-27T03:29:38;0.30;;;0.30;;
15496;SDS011;7850;52.204;5.942;2022-09-27T03:30:38;0.30;;;0.30;;
15496;SDS011;7850;52.204;5.942;2022-09-27T03:31:39;0.22;;;0.22;;
15496;SDS011;7850;52.204;5.942;2022-09-27T03:32:40;0.30;;;0.30;;
15496;SDS011;7850;52.204;5.942;2022-09-27T03:33:39;0.30;;;0.30;;
15496;SDS011;7850;52.204;5.942;2022-09-27T03:34:39;0.29;;;0.29;;
15496;SDS011;7850;52.204;5.942;2022-09-27T03:35:40;0.30;;;0.30;;
15496;SDS011;7850;52.204;5.942;2022-09-27T03:36:39;0.24;;;0.24;;
15496;SDS011;7850;52.204;5.942;2022-09-27T03:37:39;0.30;;;0.30;;
15496;SDS011;7850;52.204;5.942;2022-09-27T03:38:39;0.31;;;0.31;;
15496;SDS011;7850;52.204;5.942;2022-09-27T03:39:39;0.30;;;0.30;;
15496;SDS011;7850;52.204;5.942;2022-09-27T03:40:39;0.30;;;0.30;;
15496;SDS011;7850;52.204;5.942;2022-09-27T03:41:39;0.30;;;0.30;;
15496;SDS011;7850;52.204;5.942;2022-09-27T03:42:39;0.30;;;0.30;;
15496;SDS011;7850;52.204;5.942;2022-09-27T03:43:39;0.30;;;0.30;;
15496;SDS011;7850;52.204;5.942;2022-09-27T03:44:39;0.30;;;0.30;;
15496;SDS011;7850;52.204;5.942;2022-09-27T03:45:41;0.20;;;0.20;;
15496;SDS011;7850;52.204;5.942;2022-09-27T03:46:40;0.30;;;0.30;;
15496;SDS011;7850;52.204;5.942;2022-09-27T03:47:40;0.30;;;0.30;;
15496;SDS011;7850;52.204;5.942;2022-09-27T03:48:40;0.30;;;0.30;;
15496;SDS011;7850;52.204;5.942;2022-09-27T03:49:40;0.30;;;0.30;;
15496;SDS011;7850;52.204;5.942;2022-09-27T03:50:40;0.33;;;0.33;;
15496;SDS011;7850;52.204;5.942;2022-09-27T03:51:40;0.40;;;0.40;;
15496;SDS011;7850;52.204;5.942;2022-09-27T03:52:40;0.30;;;0.30;;
15496;SDS011;7850;52.204;5.942;2022-09-27T03:53:40;0.40;;;0.40;;
15496;SDS011;7850;52.204;5.942;2022-09-27T03:54:40;0.44;;;0.44;;
15496;SDS011;7850;52.204;5.942;2022-09-27T03:55:40;0.30;;;0.30;;
15496;SDS011;7850;52.204;5.942;2022-09-27T03:56:40;0.30;;;0.30;;
15496;SDS011;7850;52.204;5.942;2022-09-27T03:57:43;0.30;;;0.30;;
15496;SDS011;7850;52.204;5.942;2022-09-27T03:58:40;0.30;;;0.30;;
15496;SDS011;7850;52.204;5.942;2022-09-27T03:59:40;0.30;;;0.30;;
15496;SDS011;7850;52.204;5.942;2022-09-27T04:00:40;0.30;;;0.30;;
15496;SDS011;7850;52.204;5.942;2022-09-27T04:01:41;0.30;;;0.30;;
15496;SDS011;7850;52.204;5.942;2022-09-27T04:02:41;0.30;;;0.30;;
15496;SDS011;7850;52.204;5.942;2022-09-27T04:03:41;0.30;;;0.30;;
15496;SDS011;7850;52.204;5.942;2022-09-27T04:04:41;0.30;;;0.30;;
15496;SDS011;7850;52.204;5.942;2022-09-27T04:05:41;0.28;;;0.28;;
15496;SDS011;7850;52.204;5.942;2022-09-27T04:06:41;0.30;;;0.30;;
15496;SDS011;7850;52.204;5.942;2022-09-27T04:07:44;0.27;;;0.27;;
15496;SDS011;7850;52.204;5.942;2022-09-27T04:08:41;0.30;;;0.30;;
15496;SDS011;7850;52.204;5.942;2022-09-27T04:09:41;0.30;;;0.30;;
15496;SDS011;7850;52.204;5.942;2022-09-27T04:10:41;0.30;;;0.30;;
15496;SDS011;7850;52.204;5.942;2022-09-27T04:11:41;0.29;;;0.29;;
15496;SDS011;7850;52.204;5.942;2022-09-27T04:12:42;0.28;;;0.28;;
15496;SDS011;7850;52.204;5.942;2022-09-27T04:13:41;0.27;;;0.27;;
15496;SDS011;7850;52.204;5.942;2022-09-27T04:14:41;0.29;;;0.29;;
15496;SDS011;7850;52.204;5.942;2022-09-27T04:15:42;0.20;;;0.20;;
15496;SDS011;7850;52.204;5.942;2022-09-27T04:16:42;0.25;;;0.25;;
15496;SDS011;7850;52.204;5.942;2022-09-27T04:17:42;0.30;;;0.30;;
15496;SDS011;7850;52.204;5.942;2022-09-27T04:18:42;0.30;;;0.30;;
15496;SDS011;7850;52.204;5.942;2022-09-27T04:19:42;0.30;;;0.30;;
15496;SDS011;7850;52.204;5.942;2022-09-27T04:20:42;0.30;;;0.30;;
15496;SDS011;7850;52.204;5.942;2022-09-27T04:21:42;0.30;;;0.30;;
15496;SDS011;7850;52.204;5.942;2022-09-27T04:22:42;0.30;;;0.30;;
15496;SDS011;7850;52.204;5.942;2022-09-27T04:23:42;0.28;;;0.28;;
15496;SDS011;7850;52.204;5.942;2022-09-27T04:24:42;0.30;;;0.30;;
15496;SDS011;7850;52.204;5.942;2022-09-27T04:25:42;0.25;;;0.25;;
15496;SDS011;7850;52.204;5.942;2022-09-27T04:26:42;0.20;;;0.20;;
15496;SDS011;7850;52.204;5.942;2022-09-27T04:27:43;0.30;;;0.30;;
15496;SDS011;7850;52.204;5.942;2022-09-27T04:28:42;0.30;;;0.30;;
15496;SDS011;7850;52.204;5.942;2022-09-27T04:29:42;0.22;;;0.22;;
15496;SDS011;7850;52.204;5.942;2022-09-27T04:30:44;0.30;;;0.30;;
15496;SDS011;7850;52.204;5.942;2022-09-27T04:31:43;0.23;;;0.23;;
15496;SDS011;7850;52.204;5.942;2022-09-27T04:32:43;0.30;;;0.30;;
15496;SDS011;7850;52.204;5.942;2022-09-27T04:33:43;0.34;;;0.34;;
15496;SDS011;7850;52.204;5.942;2022-09-27T04:34:43;0.30;;;0.30;;
15496;SDS011;7850;52.204;5.942;2022-09-27T04:35:43;0.20;;;0.20;;
15496;SDS011;7850;52.204;5.942;2022-09-27T04:36:43;0.24;;;0.24;;
15496;SDS011;7850;52.204;5.942;2022-09-27T04:37:43;0.30;;;0.30;;
15496;SDS011;7850;52.204;5.942;2022-09-27T04:38:43;0.29;;;0.29;;
15496;SDS011;7850;52.204;5.942;2022-09-27T04:39:43;0.30;;;0.30;;
15496;SDS011;7850;52.204;5.942;2022-09-27T04:40:43;0.30;;;0.30;;
15496;SDS011;7850;52.204;5.942;2022-09-27T04:41:43;0.34;;;0.34;;
15496;SDS011;7850;52.204;5.942;2022-09-27T04:42:43;0.38;;;0.38;;
15496;SDS011;7850;52.204;5.942;2022-09-27T04:43:43;0.34;;;0.34;;
15496;SDS011;7850;52.204;5.942;2022-09-27T04:44:44;0.30;;;0.30;;
15496;SDS011;7850;52.204;5.942;2022-09-27T04:45:44;0.40;;;0.40;;
15496;SDS011;7850;52.204;5.942;2022-09-27T04:46:44;0.40;;;0.40;;
15496;SDS011;7850;52.204;5.942;2022-09-27T04:47:44;0.40;;;0.40;;
15496;SDS011;7850;52.204;5.942;2022-09-27T04:48:44;0.30;;;0.30;;
15496;SDS011;7850;52.204;5.942;2022-09-27T04:49:44;0.30;;;0.30;;
15496;SDS011;7850;52.204;5.942;2022-09-27T04:50:44;0.32;;;0.32;;
15496;SDS011;7850;52.204;5.942;2022-09-27T04:51:44;0.20;;;0.20;;
15496;SDS011;7850;52.204;5.942;2022-09-27T04:52:48;0.40;;;0.40;;
15496;SDS011;7850;52.204;5.942;2022-09-27T04:53:44;0.40;;;0.40;;
15496;SDS011;7850;52.204;5.942;2022-09-27T04:54:44;0.50;;;0.50;;
15496;SDS011;7850;52.204;5.942;2022-09-27T04:55:44;0.42;;;0.42;;
15496;SDS011;7850;52.204;5.942;2022-09-27T04:56:44;0.49;;;0.49;;
15496;SDS011;7850;52.204;5.942;2022-09-27T04:57:44;0.50;;;0.50;;
15496;SDS011;7850;52.204;5.942;2022-09-27T04:58:44;0.40;;;0.40;;
15496;SDS011;7850;52.204;5.942;2022-09-27T04:59:45;0.50;;;0.50;;
15496;SDS011;7850;52.204;5.942;2022-09-27T05:00:45;0.60;;;0.60;;
15496;SDS011;7850;52.204;5.942;2022-09-27T05:01:45;0.47;;;0.47;;
15496;SDS011;7850;52.204;5.942;2022-09-27T05:02:45;0.50;;;0.50;;
15496;SDS011;7850;52.204;5.942;2022-09-27T05:03:45;0.51;;;0.51;;
15496;SDS011;7850;52.204;5.942;2022-09-27T05:04:45;0.50;;;0.50;;
15496;SDS011;7850;52.204;5.942;2022-09-27T05:05:45;0.48;;;0.48;;
15496;SDS011;7850;52.204;5.942;2022-09-27T05:06:45;0.50;;;0.50;;
15496;SDS011;7850;52.204;5.942;2022-09-27T05:07:45;0.50;;;0.50;;
15496;SDS011;7850;52.204;5.942;2022-09-27T05:08:45;0.50;;;0.50;;
15496;SDS011;7850;52.204;5.942;2022-09-27T05:09:45;0.50;;;0.50;;
15496;SDS011;7850;52.204;5.942;2022-09-27T05:10:45;0.40;;;0.40;;
15496;SDS011;7850;52.204;5.942;2022-09-27T05:11:45;0.40;;;0.40;;
15496;SDS011;7850;52.204;5.942;2022-09-27T05:12:45;0.50;;;0.50;;
15496;SDS011;7850;52.204;5.942;2022-09-27T05:13:46;0.40;;;0.40;;
15496;SDS011;7850;52.204;5.942;2022-09-27T05:14:46;0.40;;;0.40;;
15496;SDS011;7850;52.204;5.942;2022-09-27T05:15:46;0.40;;;0.40;;
15496;SDS011;7850;52.204;5.942;2022-09-27T05:16:46;0.50;;;0.50;;
15496;SDS011;7850;52.204;5.942;2022-09-27T05:17:46;0.50;;;0.50;;
15496;SDS011;7850;52.204;5.942;2022-09-27T05:18:46;0.60;;;0.60;;
15496;SDS011;7850;52.204;5.942;2022-09-27T05:19:46;0.46;;;0.46;;
15496;SDS011;7850;52.204;5.942;2022-09-27T05:20:46;0.40;;;0.40;;
15496;SDS011;7850;52.204;5.942;2022-09-27T05:21:46;0.42;;;0.42;;
15496;SDS011;7850;52.204;5.942;2022-09-27T05:22:46;0.47;;;0.47;;
15496;SDS011;7850;52.204;5.942;2022-09-27T05:23:46;0.40;;;0.40;;
15496;SDS011;7850;52.204;5.942;2022-09-27T05:24:46;0.40;;;0.40;;
15496;SDS011;7850;52.204;5.942;2022-09-27T05:25:46;0.40;;;0.40;;
15496;SDS011;7850;52.204;5.942;2022-09-27T05:26:46;0.50;;;0.50;;
15496;SDS011;7850;52.204;5.942;2022-09-27T05:27:47;0.47;;;0.47;;
15496;SDS011;7850;52.204;5.942;2022-09-27T05:28:47;0.50;;;0.50;;
15496;SDS011;7850;52.204;5.942;2022-09-27T05:29:47;0.50;;;0.50;;
15496;SDS011;7850;52.204;5.942;2022-09-27T05:30:47;0.47;;;0.47;;
15496;SDS011;7850;52.204;5.942;2022-09-27T05:31:47;0.46;;;0.46;;
15496;SDS011;7850;52.204;5.942;2022-09-27T05:32:47;0.50;;;0.50;;
15496;SDS011;7850;52.204;5.942;2022-09-27T05:33:47;0.40;;;0.40;;
15496;SDS011;7850;52.204;5.942;2022-09-27T05:34:47;0.37;;;0.37;;
15496;SDS011;7850;52.204;5.942;2022-09-27T05:35:51;0.28;;;0.28;;
15496;SDS011;7850;52.204;5.942;2022-09-27T05:36:47;0.35;;;0.35;;
15496;SDS011;7850;52.204;5.942;2022-09-27T05:37:51;0.30;;;0.30;;
15496;SDS011;7850;52.204;5.942;2022-09-27T05:38:47;0.30;;;0.30;;
15496;SDS011;7850;52.204;5.942;2022-09-27T05:39:47;0.20;;;0.20;;
15496;SDS011;7850;52.204;5.942;2022-09-27T05:40:47;0.30;;;0.30;;
15496;SDS011;7850;52.204;5.942;2022-09-27T05:41:47;0.26;;;0.26;;
15496;SDS011;7850;52.204;5.942;2022-09-27T05:42:47;0.20;;;0.20;;
15496;SDS011;7850;52.204;5.942;2022-09-27T05:43:47;0.26;;;0.26;;
15496;SDS011;7850;52.204;5.942;2022-09-27T05:44:47;0.30;;;0.30;;
15496;SDS011;7850;52.204;5.942;2022-09-27T05:45:48;0.30;;;0.30;;
15496;SDS011;7850;52.204;5.942;2022-09-27T05:46:48;0.30;;;0.30;;
15496;SDS011;7850;52.204;5.942;2022-09-27T05:47:51;0.29;;;0.29;;
15496;SDS011;7850;52.204;5.942;2022-09-27T05:48:48;0.30;;;0.30;;
15496;SDS011;7850;52.204;5.942;2022-09-27T05:49:48;0.30;;;0.30;;
15496;SDS011;7850;52.204;5.942;2022-09-27T05:50:48;0.28;;;0.28;;
15496;SDS011;7850;52.204;5.942;2022-09-27T05:51:48;0.30;;;0.30;;
15496;SDS011;7850;52.204;5.942;2022-09-27T05:52:48;0.30;;;0.30;;
15496;SDS011;7850;52.204;5.942;2022-09-27T05:53:48;0.30;;;0.30;;
15496;SDS011;7850;52.204;5.942;2022-09-27T05:54:48;0.27;;;0.27;;
15496;SDS011;7850;52.204;5.942;2022-09-27T05:55:48;0.30;;;0.30;;
15496;SDS011;7850;52.204;5.942;2022-09-27T05:56:48;0.20;;;0.20;;
15496;SDS011;7850;52.204;5.942;2022-09-27T05:57:56;0.20;;;0.20;;
15496;SDS011;7850;52.204;5.942;2022-09-27T05:58:48;0.30;;;0.30;;
15496;SDS011;7850;52.204;5.942;2022-09-27T05:59:49;0.30;;;0.30;;
15496;SDS011;7850;52.204;5.942;2022-09-27T06:00:49;0.30;;;0.30;;
15496;SDS011;7850;52.204;5.942;2022-09-27T06:01:49;0.22;;;0.22;;
15496;SDS011;7850;52.204;5.942;2022-09-27T06:02:52;0.30;;;0.30;;
15496;SDS011;7850;52.204;5.942;2022-09-27T06:03:49;0.30;;;0.30;;
15496;SDS011;7850;52.204;5.942;2022-09-27T06:04:49;0.30;;;0.30;;
15496;SDS011;7850;52.204;5.942;2022-09-27T06:05:49;0.27;;;0.27;;
15496;SDS011;7850;52.204;5.942;2022-09-27T06:06:49;0.30;;;0.30;;
15496;SDS011;7850;52.204;5.942;2022-09-27T06:07:49;0.30;;;0.30;;
15496;SDS011;7850;52.204;5.942;2022-09-27T06:08:49;0.30;;;0.30;;